PAY5425 KSLC-KLAX
Flight info
| Callsign | PAY5425 |
|---|---|
| Flight time | 1h 31m |
| Altitude | 38000 |
| Route | WINEN LAKRR Q73 HAKMN ANJLL4 |
| Aircraft | B738/M-SDE2E3FGHIRWXY/LB1 |
Departure
| Time | 2026-04-26 13:42 |
|---|---|
| Airport | Salt Lake City International Airport (KSLC) |
Arrival
| Time | 2026-04-26 15:13 |
|---|---|
| Airport | Los Angeles International Airport (KLAX) |
| Time | Latitude | Longitude | Altitude | Speed | Heading |
|---|---|---|---|---|---|
| 2026-04-26 13:18 | 40.78620 | -111.98666 | 4231 ft | 0 kts | 175° |
| 2026-04-26 13:32 | 40.78630 | -111.98667 | 4231 ft | 2 kts | 175° |
| 2026-04-26 13:32 | 40.78646 | -111.98669 | 4231 ft | 2 kts | 173° |
| 2026-04-26 13:32 | 40.78657 | -111.98671 | 4232 ft | 2 kts | 143° |
| 2026-04-26 13:32 | 40.78675 | -111.98687 | 4230 ft | 2 kts | 139° |
| 2026-04-26 13:33 | 40.78687 | -111.98702 | 4230 ft | 2 kts | 125° |
| 2026-04-26 13:33 | 40.78692 | -111.98712 | 4230 ft | 0 kts | 88° |
| 2026-04-26 13:35 | 40.78695 | -111.98687 | 4231 ft | 6 kts | 65° |
| 2026-04-26 13:36 | 40.78720 | -111.98705 | 4230 ft | 6 kts | 255° |
| 2026-04-26 13:36 | 40.78689 | -111.98769 | 4231 ft | 10 kts | 245° |
| 2026-04-26 13:36 | 40.78675 | -111.98896 | 4230 ft | 17 kts | 263° |
| 2026-04-26 13:36 | 40.78661 | -111.99079 | 4231 ft | 22 kts | 264° |
| 2026-04-26 13:37 | 40.78641 | -111.99304 | 4232 ft | 15 kts | 262° |
| 2026-04-26 13:37 | 40.78639 | -111.99439 | 4231 ft | 15 kts | 299° |
| 2026-04-26 13:37 | 40.78700 | -111.99475 | 4233 ft | 14 kts | 350° |
| 2026-04-26 13:37 | 40.78829 | -111.99492 | 4235 ft | 15 kts | 356° |
| 2026-04-26 13:38 | 40.78912 | -111.99500 | 4234 ft | 21 kts | 355° |
| 2026-04-26 13:38 | 40.79085 | -111.99519 | 4232 ft | 28 kts | 355° |
| 2026-04-26 13:38 | 40.79299 | -111.99545 | 4227 ft | 32 kts | 354° |
| 2026-04-26 13:38 | 40.79515 | -111.99572 | 4226 ft | 30 kts | 355° |
| 2026-04-26 13:39 | 40.79714 | -111.99594 | 4227 ft | 27 kts | 355° |
| 2026-04-26 13:39 | 40.79898 | -111.99614 | 4227 ft | 26 kts | 355° |
| 2026-04-26 13:39 | 40.80068 | -111.99638 | 4232 ft | 24 kts | 353° |
| 2026-04-26 13:39 | 40.80279 | -111.99665 | 4230 ft | 22 kts | 355° |
| 2026-04-26 13:40 | 40.80381 | -111.99676 | 4231 ft | 22 kts | 355° |
| 2026-04-26 13:40 | 40.80532 | -111.99692 | 4229 ft | 21 kts | 355° |
| 2026-04-26 13:40 | 40.80672 | -111.99715 | 4225 ft | 17 kts | 335° |
| 2026-04-26 13:40 | 40.80692 | -111.99851 | 4226 ft | 15 kts | 261° |
| 2026-04-26 13:41 | 40.80613 | -111.99906 | 4227 ft | 15 kts | 173° |
| 2026-04-26 13:41 | 40.80398 | -111.99876 | 4230 ft | 53 kts | 174° |
| 2026-04-26 13:41 | 40.79832 | -111.99811 | 4227 ft | 109 kts | 175° |
| 2026-04-26 13:41 | 40.78888 | -111.99699 | 4237 ft | 162 kts | 173° |
| 2026-04-26 13:42 | 40.77696 | -111.99568 | 4746 ft | 179 kts | 176° |
| 2026-04-26 13:42 | 40.76385 | -111.99529 | 5299 ft | 201 kts | 183° |
| 2026-04-26 13:42 | 40.74972 | -112.00118 | 5542 ft | 228 kts | 204° |
| 2026-04-26 13:42 | 40.73468 | -112.01115 | 5747 ft | 256 kts | 206° |
| 2026-04-26 13:43 | 40.71824 | -112.02212 | 6340 ft | 269 kts | 205° |
| 2026-04-26 13:43 | 40.70165 | -112.03213 | 7542 ft | 255 kts | 203° |
| 2026-04-26 13:43 | 40.68566 | -112.04104 | 8731 ft | 249 kts | 203° |
| 2026-04-26 13:43 | 40.66954 | -112.05003 | 9560 ft | 255 kts | 204° |
| 2026-04-26 13:44 | 40.65311 | -112.05924 | 10326 ft | 260 kts | 204° |
| 2026-04-26 13:44 | 40.63610 | -112.06878 | 10628 ft | 284 kts | 204° |
| 2026-04-26 13:44 | 40.61709 | -112.07943 | 10825 ft | 310 kts | 204° |
| 2026-04-26 13:44 | 40.59649 | -112.09091 | 11179 ft | 329 kts | 204° |
| 2026-04-26 13:45 | 40.57519 | -112.10272 | 11912 ft | 334 kts | 204° |
| 2026-04-26 13:45 | 40.55365 | -112.11462 | 12780 ft | 336 kts | 204° |
| 2026-04-26 13:45 | 40.53203 | -112.12660 | 13656 ft | 337 kts | 205° |
| 2026-04-26 13:45 | 40.51035 | -112.13904 | 14226 ft | 346 kts | 204° |
| 2026-04-26 13:46 | 40.48784 | -112.15144 | 14820 ft | 353 kts | 204° |
| 2026-04-26 13:46 | 40.46501 | -112.16386 | 15503 ft | 358 kts | 204° |
| 2026-04-26 13:46 | 40.44222 | -112.17626 | 16219 ft | 360 kts | 204° |
| 2026-04-26 13:46 | 40.41894 | -112.18893 | 16902 ft | 364 kts | 204° |
| 2026-04-26 13:47 | 40.39567 | -112.20165 | 17861 ft | 361 kts | 204° |
| 2026-04-26 13:47 | 40.37241 | -112.21423 | 18451 ft | 366 kts | 204° |
| 2026-04-26 13:47 | 40.34906 | -112.22675 | 19040 ft | 369 kts | 204° |
| 2026-04-26 13:47 | 40.32485 | -112.23991 | 19602 ft | 373 kts | 204° |
| 2026-04-26 13:48 | 40.30088 | -112.25304 | 20286 ft | 374 kts | 204° |
| 2026-04-26 13:48 | 40.27685 | -112.26622 | 20989 ft | 374 kts | 204° |
| 2026-04-26 13:48 | 40.25266 | -112.27949 | 21500 ft | 380 kts | 204° |
| 2026-04-26 13:48 | 40.22849 | -112.29274 | 21982 ft | 385 kts | 204° |
| 2026-04-26 13:49 | 40.20361 | -112.30633 | 22453 ft | 390 kts | 204° |
| 2026-04-26 13:49 | 40.17834 | -112.32011 | 22890 ft | 396 kts | 203° |
| 2026-04-26 13:49 | 40.15274 | -112.33404 | 23364 ft | 399 kts | 203° |
| 2026-04-26 13:49 | 40.12709 | -112.34798 | 23871 ft | 400 kts | 203° |
| 2026-04-26 13:50 | 40.10131 | -112.36197 | 24348 ft | 402 kts | 203° |
| 2026-04-26 13:50 | 40.07537 | -112.37604 | 24779 ft | 405 kts | 202° |
| 2026-04-26 13:50 | 40.04924 | -112.39021 | 25194 ft | 408 kts | 202° |
| 2026-04-26 13:50 | 40.02296 | -112.40445 | 25613 ft | 410 kts | 202° |
| 2026-04-26 13:51 | 39.99689 | -112.41855 | 26019 ft | 413 kts | 202° |
| 2026-04-26 13:51 | 39.97028 | -112.43293 | 26431 ft | 415 kts | 202° |
| 2026-04-26 13:51 | 39.94352 | -112.44738 | 26787 ft | 418 kts | 202° |
| 2026-04-26 13:51 | 39.91651 | -112.46198 | 27182 ft | 421 kts | 201° |
| 2026-04-26 13:52 | 39.88934 | -112.47664 | 27524 ft | 425 kts | 201° |
| 2026-04-26 13:52 | 39.86191 | -112.49140 | 27851 ft | 428 kts | 201° |
| 2026-04-26 13:52 | 39.83433 | -112.50623 | 28238 ft | 430 kts | 201° |
| 2026-04-26 13:52 | 39.80662 | -112.52113 | 28638 ft | 432 kts | 201° |
| 2026-04-26 13:53 | 39.77884 | -112.53606 | 29000 ft | 434 kts | 201° |
| 2026-04-26 13:53 | 39.75089 | -112.55106 | 29338 ft | 436 kts | 201° |
| 2026-04-26 13:53 | 39.72320 | -112.56593 | 29723 ft | 437 kts | 201° |
| 2026-04-26 13:53 | 39.69509 | -112.58105 | 30051 ft | 438 kts | 201° |
| 2026-04-26 13:54 | 39.66689 | -112.59615 | 30429 ft | 438 kts | 201° |
| 2026-04-26 13:54 | 39.63884 | -112.61114 | 30873 ft | 435 kts | 201° |
| 2026-04-26 13:54 | 39.61091 | -112.62605 | 31339 ft | 433 kts | 202° |
| 2026-04-26 13:55 | 39.55744 | -112.65456 | 32107 ft | 431 kts | 202° |
| 2026-04-26 13:55 | 39.53909 | -112.66433 | 32364 ft | 430 kts | 202° |
| 2026-04-26 13:56 | 39.44744 | -112.71313 | 33802 ft | 422 kts | 203° |
| 2026-04-26 13:56 | 39.42029 | -112.72755 | 34103 ft | 422 kts | 203° |
| 2026-04-26 13:56 | 39.39311 | -112.74199 | 34313 ft | 423 kts | 203° |
| 2026-04-26 13:56 | 39.36586 | -112.75645 | 34469 ft | 424 kts | 203° |
| 2026-04-26 13:57 | 39.33866 | -112.77087 | 34761 ft | 423 kts | 204° |
| 2026-04-26 13:57 | 39.31143 | -112.78530 | 35057 ft | 422 kts | 204° |
| 2026-04-26 13:57 | 39.28425 | -112.79969 | 35264 ft | 423 kts | 204° |
| 2026-04-26 13:57 | 39.25689 | -112.81416 | 35397 ft | 426 kts | 204° |
| 2026-04-26 13:58 | 39.22951 | -112.82862 | 35716 ft | 424 kts | 204° |
| 2026-04-26 13:58 | 39.20269 | -112.84277 | 36057 ft | 422 kts | 204° |
| 2026-04-26 13:58 | 39.17553 | -112.85708 | 36293 ft | 422 kts | 204° |
| 2026-04-26 13:58 | 39.14830 | -112.87143 | 36492 ft | 423 kts | 204° |
| 2026-04-26 13:59 | 39.12108 | -112.88577 | 36735 ft | 423 kts | 204° |
| 2026-04-26 13:59 | 39.09388 | -112.90008 | 37009 ft | 422 kts | 204° |
| 2026-04-26 13:59 | 39.06677 | -112.91433 | 37287 ft | 421 kts | 205° |
| 2026-04-26 14:00 | 38.98554 | -112.95697 | 37605 ft | 426 kts | 205° |
| 2026-04-26 14:00 | 38.95796 | -112.97144 | 37601 ft | 430 kts | 205° |
| 2026-04-26 14:01 | 38.90225 | -113.00059 | 37603 ft | 434 kts | 205° |
| 2026-04-26 14:01 | 38.84625 | -113.02985 | 37610 ft | 435 kts | 205° |
| 2026-04-26 14:02 | 38.79011 | -113.05910 | 37600 ft | 436 kts | 205° |
| 2026-04-26 14:02 | 38.73399 | -113.08830 | 37597 ft | 435 kts | 205° |
| 2026-04-26 14:03 | 38.67836 | -113.11721 | 37619 ft | 434 kts | 205° |
| 2026-04-26 14:03 | 38.62238 | -113.14626 | 37667 ft | 434 kts | 205° |
| 2026-04-26 14:04 | 38.56654 | -113.17518 | 37687 ft | 433 kts | 205° |
| 2026-04-26 14:04 | 38.51072 | -113.20404 | 37689 ft | 432 kts | 205° |
| 2026-04-26 14:05 | 38.45535 | -113.23262 | 37686 ft | 432 kts | 205° |
| 2026-04-26 14:05 | 38.39964 | -113.26134 | 37674 ft | 432 kts | 205° |
| 2026-04-26 14:06 | 38.34395 | -113.28999 | 37682 ft | 432 kts | 205° |
| 2026-04-26 14:06 | 38.28824 | -113.31861 | 37651 ft | 432 kts | 205° |
| 2026-04-26 14:07 | 38.23290 | -113.34699 | 37625 ft | 432 kts | 205° |
| 2026-04-26 14:07 | 38.17711 | -113.37555 | 37625 ft | 431 kts | 205° |
| 2026-04-26 14:08 | 38.12145 | -113.40402 | 37631 ft | 431 kts | 205° |
| 2026-04-26 14:08 | 38.06872 | -113.43090 | 37644 ft | 431 kts | 205° |
| 2026-04-26 14:09 | 38.01300 | -113.45929 | 37628 ft | 431 kts | 205° |
| 2026-04-26 14:09 | 37.95763 | -113.48747 | 37633 ft | 431 kts | 205° |
| 2026-04-26 14:10 | 37.90167 | -113.51530 | 37631 ft | 433 kts | 203° |
| 2026-04-26 14:10 | 37.84464 | -113.54007 | 37632 ft | 434 kts | 201° |
| 2026-04-26 14:11 | 37.75873 | -113.57607 | 37653 ft | 433 kts | 202° |
| 2026-04-26 14:11 | 37.70199 | -113.60042 | 37647 ft | 433 kts | 202° |
| 2026-04-26 14:12 | 37.64583 | -113.62473 | 37656 ft | 434 kts | 202° |
| 2026-04-26 14:12 | 37.59074 | -113.64859 | 37666 ft | 434 kts | 202° |
| 2026-04-26 14:13 | 37.50698 | -113.68475 | 37663 ft | 433 kts | 203° |
| 2026-04-26 14:14 | 37.45003 | -113.70930 | 37676 ft | 433 kts | 203° |
| 2026-04-26 14:14 | 37.39310 | -113.73380 | 37686 ft | 432 kts | 203° |
| 2026-04-26 14:15 | 37.33618 | -113.75824 | 37696 ft | 432 kts | 203° |
| 2026-04-26 14:15 | 37.27963 | -113.78248 | 37691 ft | 431 kts | 203° |
| 2026-04-26 14:16 | 37.22286 | -113.80678 | 37699 ft | 431 kts | 203° |
| 2026-04-26 14:16 | 37.16629 | -113.83098 | 37719 ft | 429 kts | 203° |
| 2026-04-26 14:17 | 37.11081 | -113.85475 | 37699 ft | 430 kts | 203° |
| 2026-04-26 14:17 | 37.05427 | -113.87879 | 37686 ft | 428 kts | 203° |
| 2026-04-26 14:18 | 36.99824 | -113.90257 | 37692 ft | 428 kts | 203° |
| 2026-04-26 14:18 | 36.94192 | -113.92649 | 37682 ft | 427 kts | 203° |
| 2026-04-26 14:19 | 36.88569 | -113.95034 | 37680 ft | 427 kts | 203° |
| 2026-04-26 14:19 | 36.82954 | -113.97412 | 37680 ft | 426 kts | 204° |
| 2026-04-26 14:20 | 36.77351 | -113.99781 | 37683 ft | 425 kts | 204° |
| 2026-04-26 14:20 | 36.71809 | -114.02120 | 37685 ft | 424 kts | 204° |
| 2026-04-26 14:21 | 36.66216 | -114.04478 | 37688 ft | 424 kts | 204° |
| 2026-04-26 14:21 | 36.60635 | -114.06828 | 37709 ft | 423 kts | 204° |
| 2026-04-26 14:22 | 36.55032 | -114.09183 | 37691 ft | 428 kts | 204° |
| 2026-04-26 14:22 | 36.49378 | -114.11558 | 37683 ft | 435 kts | 204° |
| 2026-04-26 14:23 | 36.43624 | -114.13968 | 37691 ft | 438 kts | 204° |
| 2026-04-26 14:23 | 36.37878 | -114.16367 | 37675 ft | 432 kts | 204° |
| 2026-04-26 14:24 | 36.32231 | -114.18721 | 37691 ft | 426 kts | 204° |
| 2026-04-26 14:24 | 36.26627 | -114.21061 | 37687 ft | 424 kts | 204° |
| 2026-04-26 14:25 | 36.21079 | -114.23373 | 37687 ft | 423 kts | 204° |
| 2026-04-26 14:25 | 36.15500 | -114.25694 | 37673 ft | 423 kts | 204° |
| 2026-04-26 14:26 | 36.10014 | -114.28271 | 37662 ft | 419 kts | 212° |
| 2026-04-26 14:26 | 36.07628 | -114.30263 | 37661 ft | 410 kts | 225° |
| 2026-04-26 14:26 | 36.05590 | -114.32696 | 37680 ft | 408 kts | 229° |
| 2026-04-26 14:27 | 36.01804 | -114.37844 | 37671 ft | 408 kts | 231° |
| 2026-04-26 14:27 | 35.98033 | -114.43101 | 37698 ft | 409 kts | 231° |
| 2026-04-26 14:28 | 35.94235 | -114.48367 | 37721 ft | 412 kts | 231° |
| 2026-04-26 14:28 | 35.90409 | -114.53653 | 37735 ft | 414 kts | 231° |
| 2026-04-26 14:29 | 35.86568 | -114.58949 | 37741 ft | 415 kts | 231° |
| 2026-04-26 14:29 | 35.82739 | -114.64221 | 37751 ft | 416 kts | 231° |
| 2026-04-26 14:30 | 35.78882 | -114.69524 | 37762 ft | 416 kts | 231° |
| 2026-04-26 14:30 | 35.75018 | -114.74830 | 37760 ft | 416 kts | 231° |
| 2026-04-26 14:31 | 35.71180 | -114.80091 | 37798 ft | 415 kts | 231° |
| 2026-04-26 14:31 | 35.67324 | -114.85370 | 37797 ft | 415 kts | 231° |
| 2026-04-26 14:32 | 35.63700 | -114.90333 | 37800 ft | 415 kts | 231° |
| 2026-04-26 14:32 | 35.59990 | -114.95422 | 37795 ft | 414 kts | 231° |
| 2026-04-26 14:33 | 35.56162 | -115.00667 | 37825 ft | 413 kts | 231° |
| 2026-04-26 14:33 | 35.52382 | -115.05833 | 37812 ft | 404 kts | 231° |
| 2026-04-26 14:34 | 35.48639 | -115.10878 | 37809 ft | 400 kts | 230° |
| 2026-04-26 14:34 | 35.44866 | -115.15788 | 37801 ft | 401 kts | 230° |
| 2026-04-26 14:35 | 35.41044 | -115.20741 | 37805 ft | 399 kts | 230° |
| 2026-04-26 14:35 | 35.37268 | -115.25649 | 37806 ft | 398 kts | 230° |
| 2026-04-26 14:36 | 35.33478 | -115.30577 | 37824 ft | 397 kts | 230° |
| 2026-04-26 14:36 | 35.29695 | -115.35491 | 37811 ft | 396 kts | 230° |
| 2026-04-26 14:37 | 35.25921 | -115.40388 | 37837 ft | 396 kts | 230° |
| 2026-04-26 14:37 | 35.22170 | -115.45247 | 37856 ft | 395 kts | 230° |
| 2026-04-26 14:38 | 35.18399 | -115.50125 | 37845 ft | 396 kts | 230° |
| 2026-04-26 14:38 | 35.14947 | -115.54585 | 37859 ft | 396 kts | 230° |
| 2026-04-26 14:39 | 35.11597 | -115.58902 | 37831 ft | 396 kts | 230° |
| 2026-04-26 14:39 | 35.08222 | -115.63221 | 37833 ft | 396 kts | 230° |
| 2026-04-26 14:40 | 35.04676 | -115.67749 | 37856 ft | 395 kts | 230° |
| 2026-04-26 14:40 | 35.01199 | -115.72187 | 37854 ft | 397 kts | 230° |
| 2026-04-26 14:41 | 34.97441 | -115.76980 | 37840 ft | 401 kts | 230° |
| 2026-04-26 14:41 | 34.93809 | -115.81604 | 37859 ft | 403 kts | 229° |
| 2026-04-26 14:42 | 34.89950 | -115.86510 | 37846 ft | 405 kts | 229° |
| 2026-04-26 14:42 | 34.86052 | -115.91462 | 37844 ft | 405 kts | 229° |
| 2026-04-26 14:43 | 34.82148 | -115.96413 | 37843 ft | 405 kts | 229° |
| 2026-04-26 14:43 | 34.78254 | -116.01343 | 37841 ft | 400 kts | 230° |
| 2026-04-26 14:44 | 34.74439 | -116.06183 | 37844 ft | 393 kts | 230° |
| 2026-04-26 14:44 | 34.70698 | -116.10952 | 37822 ft | 386 kts | 230° |
| 2026-04-26 14:44 | 34.68859 | -116.13292 | 37640 ft | 381 kts | 230° |
| 2026-04-26 14:45 | 34.67033 | -116.15615 | 37214 ft | 376 kts | 230° |
| 2026-04-26 14:45 | 34.65841 | -116.17130 | 36831 ft | 375 kts | 230° |
| 2026-04-26 14:45 | 34.63435 | -116.20188 | 36226 ft | 371 kts | 230° |
| 2026-04-26 14:45 | 34.61637 | -116.22474 | 35602 ft | 374 kts | 230° |
| 2026-04-26 14:46 | 34.59842 | -116.24751 | 34988 ft | 376 kts | 230° |
| 2026-04-26 14:46 | 34.58054 | -116.27019 | 34451 ft | 376 kts | 230° |
| 2026-04-26 14:46 | 34.56242 | -116.29314 | 33825 ft | 378 kts | 230° |
| 2026-04-26 14:46 | 34.54438 | -116.31598 | 33539 ft | 369 kts | 230° |
| 2026-04-26 14:47 | 34.52670 | -116.33831 | 33040 ft | 368 kts | 230° |
| 2026-04-26 14:47 | 34.50904 | -116.36065 | 32513 ft | 366 kts | 230° |
| 2026-04-26 14:47 | 34.49132 | -116.38307 | 31853 ft | 368 kts | 230° |
| 2026-04-26 14:47 | 34.47357 | -116.40552 | 31187 ft | 370 kts | 230° |
| 2026-04-26 14:48 | 34.45587 | -116.42785 | 30820 ft | 365 kts | 230° |
| 2026-04-26 14:48 | 34.43833 | -116.44994 | 30356 ft | 362 kts | 230° |
| 2026-04-26 14:48 | 34.42129 | -116.47168 | 29903 ft | 359 kts | 232° |
| 2026-04-26 14:48 | 34.40627 | -116.49568 | 29144 ft | 359 kts | 242° |
| 2026-04-26 14:49 | 34.39576 | -116.52282 | 28718 ft | 353 kts | 248° |
| 2026-04-26 14:49 | 34.38663 | -116.55045 | 28202 ft | 351 kts | 248° |
| 2026-04-26 14:49 | 34.37673 | -116.57734 | 27689 ft | 350 kts | 245° |
| 2026-04-26 14:49 | 34.36558 | -116.60341 | 27237 ft | 347 kts | 244° |
| 2026-04-26 14:50 | 34.35448 | -116.62905 | 26850 ft | 344 kts | 244° |
| 2026-04-26 14:50 | 34.34421 | -116.65340 | 26511 ft | 339 kts | 244° |
| 2026-04-26 14:50 | 34.33373 | -116.67863 | 26043 ft | 342 kts | 245° |
| 2026-04-26 14:50 | 34.32283 | -116.70550 | 25225 ft | 357 kts | 245° |
| 2026-04-26 14:51 | 34.31211 | -116.73224 | 24659 ft | 361 kts | 245° |
| 2026-04-26 14:51 | 34.30125 | -116.75939 | 24259 ft | 357 kts | 245° |
| 2026-04-26 14:51 | 34.29045 | -116.78635 | 23777 ft | 355 kts | 245° |
| 2026-04-26 14:51 | 34.27972 | -116.81305 | 23329 ft | 352 kts | 245° |
| 2026-04-26 14:52 | 34.26904 | -116.83957 | 22810 ft | 349 kts | 245° |
| 2026-04-26 14:52 | 34.25845 | -116.86583 | 22344 ft | 346 kts | 245° |
| 2026-04-26 14:52 | 34.24797 | -116.89178 | 21934 ft | 342 kts | 246° |
| 2026-04-26 14:52 | 34.23757 | -116.91754 | 21505 ft | 338 kts | 246° |
| 2026-04-26 14:53 | 34.22730 | -116.94295 | 21058 ft | 336 kts | 246° |
| 2026-04-26 14:53 | 34.21722 | -116.96784 | 20663 ft | 332 kts | 246° |
| 2026-04-26 14:53 | 34.20739 | -116.99299 | 20191 ft | 331 kts | 248° |
| 2026-04-26 14:53 | 34.19906 | -117.01919 | 19632 ft | 334 kts | 252° |
| 2026-04-26 14:54 | 34.19207 | -117.04583 | 19180 ft | 332 kts | 254° |
| 2026-04-26 14:54 | 34.18582 | -117.07258 | 18753 ft | 330 kts | 255° |
| 2026-04-26 14:54 | 34.17943 | -117.09913 | 18333 ft | 328 kts | 254° |
| 2026-04-26 14:54 | 34.17264 | -117.12535 | 17877 ft | 327 kts | 253° |
| 2026-04-26 14:55 | 34.16564 | -117.15135 | 17434 ft | 324 kts | 253° |
| 2026-04-26 14:55 | 34.15866 | -117.17672 | 17062 ft | 320 kts | 253° |
| 2026-04-26 14:55 | 34.15163 | -117.20221 | 16676 ft | 319 kts | 253° |
| 2026-04-26 14:55 | 34.14467 | -117.22744 | 16292 ft | 317 kts | 253° |
| 2026-04-26 14:56 | 34.13774 | -117.25261 | 15892 ft | 314 kts | 253° |
| 2026-04-26 14:56 | 34.13087 | -117.27755 | 15483 ft | 312 kts | 253° |
| 2026-04-26 14:56 | 34.12403 | -117.30237 | 15086 ft | 310 kts | 253° |
| 2026-04-26 14:56 | 34.11724 | -117.32700 | 14688 ft | 309 kts | 253° |
| 2026-04-26 14:57 | 34.11045 | -117.35154 | 14287 ft | 308 kts | 253° |
| 2026-04-26 14:57 | 34.10375 | -117.37597 | 13912 ft | 306 kts | 254° |
| 2026-04-26 14:57 | 34.09752 | -117.40047 | 13598 ft | 305 kts | 255° |
| 2026-04-26 14:57 | 34.09157 | -117.42468 | 13261 ft | 307 kts | 255° |
| 2026-04-26 14:58 | 34.08545 | -117.44943 | 12956 ft | 309 kts | 255° |
| 2026-04-26 14:58 | 34.07924 | -117.47431 | 12645 ft | 310 kts | 254° |
| 2026-04-26 14:58 | 34.07303 | -117.49900 | 12335 ft | 305 kts | 254° |
| 2026-04-26 14:58 | 34.06599 | -117.52289 | 12022 ft | 300 kts | 250° |
| 2026-04-26 14:59 | 34.05797 | -117.54583 | 11746 ft | 294 kts | 248° |
| 2026-04-26 14:59 | 34.04937 | -117.56803 | 11453 ft | 290 kts | 246° |
| 2026-04-26 14:59 | 34.04084 | -117.58986 | 11172 ft | 286 kts | 247° |
| 2026-04-26 14:59 | 34.03529 | -117.60452 | 10992 ft | 300 kts | 248° |
| 2026-04-26 15:00 | 34.02382 | -117.63575 | 10589 ft | 301 kts | 248° |
| 2026-04-26 15:00 | 34.01568 | -117.65818 | 10279 ft | 290 kts | 248° |
| 2026-04-26 15:00 | 34.00792 | -117.68002 | 10020 ft | 277 kts | 250° |
| 2026-04-26 15:00 | 34.00500 | -117.70221 | 9658 ft | 266 kts | 278° |
| 2026-04-26 15:01 | 34.00922 | -117.72330 | 9520 ft | 254 kts | 279° |
| 2026-04-26 15:01 | 34.00766 | -117.74393 | 9202 ft | 248 kts | 246° |
| 2026-04-26 15:01 | 33.99970 | -117.76186 | 8990 ft | 245 kts | 249° |
| 2026-04-26 15:01 | 33.99822 | -117.78183 | 8737 ft | 238 kts | 281° |
| 2026-04-26 15:02 | 34.00125 | -117.80098 | 8474 ft | 228 kts | 270° |
| 2026-04-26 15:02 | 33.99726 | -117.81875 | 8269 ft | 215 kts | 250° |
| 2026-04-26 15:02 | 33.99301 | -117.83598 | 8047 ft | 217 kts | 259° |
| 2026-04-26 15:02 | 33.99141 | -117.85392 | 7800 ft | 214 kts | 268° |
| 2026-04-26 15:03 | 33.99035 | -117.87145 | 7589 ft | 211 kts | 264° |
| 2026-04-26 15:03 | 33.98857 | -117.88865 | 7643 ft | 206 kts | 262° |
| 2026-04-26 15:03 | 33.98643 | -117.90596 | 7666 ft | 210 kts | 262° |
| 2026-04-26 15:03 | 33.98426 | -117.92350 | 7465 ft | 215 kts | 262° |
| 2026-04-26 15:04 | 33.98216 | -117.94133 | 7205 ft | 215 kts | 263° |
| 2026-04-26 15:04 | 33.98022 | -117.95888 | 6949 ft | 207 kts | 263° |
| 2026-04-26 15:04 | 33.97839 | -117.97589 | 6665 ft | 202 kts | 263° |
| 2026-04-26 15:04 | 33.97669 | -117.99233 | 6414 ft | 195 kts | 263° |
| 2026-04-26 15:05 | 33.97510 | -118.00802 | 6159 ft | 187 kts | 263° |
| 2026-04-26 15:05 | 33.97406 | -118.01841 | 5986 ft | 182 kts | 263° |
| 2026-04-26 15:05 | 33.97210 | -118.03797 | 5667 ft | 174 kts | 264° |
| 2026-04-26 15:05 | 33.97066 | -118.05241 | 5443 ft | 174 kts | 264° |
| 2026-04-26 15:06 | 33.96920 | -118.06699 | 5223 ft | 177 kts | 264° |
| 2026-04-26 15:06 | 33.96774 | -118.08167 | 4977 ft | 176 kts | 264° |
| 2026-04-26 15:06 | 33.96630 | -118.09616 | 4744 ft | 174 kts | 264° |
| 2026-04-26 15:06 | 33.96486 | -118.11061 | 4522 ft | 174 kts | 264° |
| 2026-04-26 15:07 | 33.96198 | -118.13946 | 4055 ft | 172 kts | 264° |
| 2026-04-26 15:07 | 33.96057 | -118.15346 | 3817 ft | 163 kts | 264° |
| 2026-04-26 15:07 | 33.95926 | -118.16660 | 3615 ft | 154 kts | 264° |
| 2026-04-26 15:08 | 33.95799 | -118.17924 | 3442 ft | 153 kts | 263° |
| 2026-04-26 15:08 | 33.95673 | -118.19173 | 3231 ft | 145 kts | 264° |
| 2026-04-26 15:08 | 33.95554 | -118.20357 | 3066 ft | 140 kts | 264° |
| 2026-04-26 15:08 | 33.95435 | -118.21534 | 2847 ft | 141 kts | 263° |
| 2026-04-26 15:09 | 33.95322 | -118.22650 | 2719 ft | 134 kts | 263° |
| 2026-04-26 15:09 | 33.95211 | -118.23747 | 2534 ft | 132 kts | 264° |
| 2026-04-26 15:09 | 33.95101 | -118.24836 | 2321 ft | 130 kts | 263° |
| 2026-04-26 15:09 | 33.94992 | -118.25906 | 2163 ft | 129 kts | 263° |
| 2026-04-26 15:10 | 33.94883 | -118.26982 | 1999 ft | 129 kts | 263° |
| 2026-04-26 15:10 | 33.94811 | -118.27691 | 1888 ft | 129 kts | 263° |
| 2026-04-26 15:10 | 33.94666 | -118.29132 | 1656 ft | 129 kts | 263° |
| 2026-04-26 15:10 | 33.94557 | -118.30205 | 1479 ft | 129 kts | 263° |
| 2026-04-26 15:11 | 33.94447 | -118.31284 | 1311 ft | 130 kts | 263° |
| 2026-04-26 15:11 | 33.94339 | -118.32343 | 1141 ft | 129 kts | 264° |
| 2026-04-26 15:11 | 33.94230 | -118.33415 | 958 ft | 129 kts | 263° |
| 2026-04-26 15:11 | 33.94121 | -118.34483 | 793 ft | 128 kts | 264° |
| 2026-04-26 15:12 | 33.94014 | -118.35541 | 647 ft | 127 kts | 264° |
| 2026-04-26 15:12 | 33.93905 | -118.36619 | 428 ft | 132 kts | 263° |
| 2026-04-26 15:12 | 33.93801 | -118.37688 | 296 ft | 124 kts | 265° |
| 2026-04-26 15:12 | 33.93698 | -118.38680 | 156 ft | 112 kts | 264° |
| 2026-04-26 15:13 | 33.93614 | -118.39494 | 125 ft | 72 kts | 262° |
| 2026-04-26 15:13 | 33.93617 | -118.39836 | 121 ft | 1 kts | 291° |
| 2026-04-26 15:13 | 33.93641 | -118.39911 | 124 ft | 14 kts | 291° |
| 2026-04-26 15:14 | 33.93663 | -118.40023 | 125 ft | 14 kts | 272° |
| 2026-04-26 15:14 | 33.93651 | -118.40159 | 120 ft | 17 kts | 263° |
| 2026-04-26 15:14 | 33.93648 | -118.40294 | 125 ft | 15 kts | 282° |
| 2026-04-26 15:14 | 33.93699 | -118.40397 | 122 ft | 14 kts | 327° |
| 2026-04-26 15:15 | 33.93790 | -118.40425 | 123 ft | 12 kts | 354° |
| 2026-04-26 15:15 | 33.93832 | -118.40381 | 123 ft | 13 kts | 63° |
| 2026-04-26 15:15 | 33.93868 | -118.40292 | 122 ft | 9 kts | 24° |
| 2026-04-26 15:15 | 33.93927 | -118.40295 | 122 ft | 8 kts | 341° |
| 2026-04-26 15:16 | 33.93961 | -118.40336 | 121 ft | 6 kts | 311° |
| 2026-04-26 15:16 | 33.93976 | -118.40357 | 125 ft | 0 kts | 310° |
| 2026-04-26 15:16 | 33.93981 | -118.40364 | 125 ft | 0 kts | 310° |